Time;durP1;ratioP1;P1;durP2;ratioP2;P2;SDS_P1;SDS_P2;PMS_P1;PMS_P2;Temp;Humidity;BMP_temperature;BMP_pressure;BME280_temperature;BME280_humidity;BME280_pressure;Samples;Min_cycle;Max_cycle;Signal;HPM_P1;HPM_P2
2022/08/31 00:05:37;;;;;;;;;;;;;;;17.98;66.68;102091.78;5115906;28;19967;-35
2022/08/31 00:08:02;;;;;;;;;;;;;;;17.95;67.85;102089.53;5115740;28;20320;-35
2022/08/31 00:10:28;;;;;;;;;;;;;;;17.93;66.80;102099.06;5116490;28;19911;-35
2022/08/31 00:12:53;;;;;;;;;;;;;;;17.92;68.34;102098.25;5115843;28;19912;-35
2022/08/31 00:15:20;;;;;;;;;;;;;;;17.85;67.67;102096.75;5115288;28;19912;-35
2022/08/31 00:17:45;;;;;;;;;;;;;;;17.83;67.05;102098.91;5116362;28;20022;-35
2022/08/31 00:20:11;;;;;;;;;;;;;;;17.82;67.97;102097.28;5115543;28;19955;-35
2022/08/31 00:22:36;;;;;;;;;;;;;;;17.79;70.03;102103.22;5116123;28;19912;-35
2022/08/31 00:25:02;;;;;;;;;;;;;;;17.73;68.05;102100.41;5115101;28;20082;-35
2022/08/31 00:27:27;;;;;;;;;;;;;;;17.73;68.73;102102.31;5116185;28;19911;-35
2022/08/31 00:29:53;;;;;;;;;;;;;;;17.66;69.81;102098.88;5114909;28;20264;-35
2022/08/31 00:32:18;;;;;;;;;;;;;;;17.64;70.28;102088.19;5114564;28;19976;-35
2022/08/31 00:34:43;;;;;;;;;;;;;;;17.59;70.12;102096.31;5115468;28;19912;-34
2022/08/31 00:37:08;;;;;;;;;;;;;;;17.54;70.60;102098.94;5115439;28;19911;-35
2022/08/31 00:39:33;;;;;;;;;;;;;;;17.47;70.64;102099.13;5115738;28;19916;-35
2022/08/31 00:41:59;;;;;;;;;;;;;;;17.43;70.37;102091.66;5114747;28;19911;-35
2022/08/31 00:44:24;;;;;;;;;;;;;;;17.40;71.91;102092.13;5115064;28;20052;-35
2022/08/31 00:46:49;;;;;;;;;;;;;;;17.40;71.37;102086.66;5114748;28;20359;-35
2022/08/31 00:49:20;;;;;;;;;;;;;;;17.40;71.31;102087.50;5114549;28;20019;-35
2022/08/31 00:51:50;;;;;;;;;;;;;;;17.38;71.57;102088.84;5115674;28;20258;-35
2022/08/31 00:54:17;;;;;;;;;;;;;;;17.35;70.70;102092.03;5115100;28;20003;-35
2022/08/31 00:56:43;;;;;;;;;;;;;;;17.32;72.59;102085.16;5114802;28;19987;-35
2022/08/31 00:59:09;;;;;;;;;;;;;;;17.33;71.18;102091.47;5115044;28;19916;-35
2022/08/31 01:01:34;;;;;;;;;;;;;;;17.30;72.55;102083.75;5114617;28;19911;-35
2022/08/31 01:04:00;;;;;;;;;;;;;;;17.22;72.60;102074.03;5114684;28;20278;-35
2022/08/31 01:06:25;;;;;;;;;;;;;;;17.21;72.10;102084.16;5114667;28;19912;-35
2022/08/31 01:08:52;;;;;;;;;;;;;;;17.17;72.07;102087.59;5115409;28;20339;-35
2022/08/31 01:11:19;;;;;;;;;;;;;;;17.15;72.37;102089.78;5114507;28;20371;-35
2022/08/31 01:13:45;;;;;;;;;;;;;;;17.15;72.86;102090.59;5114735;27;20276;-35
2022/08/31 01:16:13;;;;;;;;;;;;;;;17.15;73.36;102085.13;5114374;28;19912;-35
2022/08/31 01:18:40;;;;;;;;;;;;;;;17.13;73.67;102084.56;5114184;28;20006;-34
2022/08/31 01:21:18;;;;;;;;;;;;;;;17.06;74.27;102086.59;5114578;28;20304;-34
2022/08/31 01:23:44;;;;;;;;;;;;;;;17.04;73.39;102082.47;5114763;28;20373;-34
2022/08/31 01:26:12;;;;;;;;;;;;;;;17.03;73.56;102084.38;5114449;28;20002;-34
2022/08/31 01:28:37;;;;;;;;;;;;;;;16.96;74.53;102087.22;5114641;28;19919;-34
2022/08/31 01:31:05;;;;;;;;;;;;;;;17.00;73.86;102087.56;5114068;28;19911;-34
2022/08/31 01:33:31;;;;;;;;;;;;;;;16.96;75.06;102080.94;5114117;28;20052;-34
2022/08/31 01:35:57;;;;;;;;;;;;;;;16.96;74.97;102084.50;5114072;28;19911;-34
2022/08/31 01:38:23;;;;;;;;;;;;;;;16.90;74.95;102081.91;5114579;28;19964;-34
2022/08/31 01:40:50;;;;;;;;;;;;;;;16.90;74.25;102087.38;5113990;28;19994;-34
2022/08/31 01:43:15;;;;;;;;;;;;;;;16.90;74.77;102087.38;5114307;28;19922;-34
2022/08/31 01:45:41;;;;;;;;;;;;;;;16.90;74.45;102087.38;5113965;28;19916;-34
2022/08/31 01:48:06;;;;;;;;;;;;;;;16.89;74.87;102094.75;5113999;28;19912;-34
2022/08/31 01:50:31;;;;;;;;;;;;;;;16.86;75.10;102086.19;5114398;28;19962;-34
2022/08/31 01:52:56;;;;;;;;;;;;;;;16.82;74.59;102087.75;5113857;28;19947;-34
2022/08/31 01:55:22;;;;;;;;;;;;;;;16.79;74.47;102097.28;5114292;28;20092;-34
2022/08/31 01:57:47;;;;;;;;;;;;;;;16.80;74.60;102088.00;5114060;28;19912;-34
2022/08/31 02:00:12;;;;;;;;;;;;;;;16.77;75.55;102084.94;5113788;28;19916;-34
2022/08/31 02:02:38;;;;;;;;;;;;;;;16.68;76.17;102087.16;5113338;28;20283;-34
2022/08/31 02:05:03;;;;;;;;;;;;;;;16.65;75.46;102090.41;5113732;28;19955;-34
2022/08/31 02:07:28;;;;;;;;;;;;;;;16.63;75.78;102085.16;5114473;28;20069;-34
2022/08/31 02:09:54;;;;;;;;;;;;;;;16.64;75.23;102089.56;5113709;28;20329;-34
2022/08/31 02:12:19;;;;;;;;;;;;;;;16.63;75.21;102087.88;5113878;28;19912;-34
2022/08/31 02:14:44;;;;;;;;;;;;;;;16.61;76.09;102089.22;5113731;28;20328;-34
2022/08/31 02:17:09;;;;;;;;;;;;;;;16.60;76.05;102090.28;5114198;28;19920;-34
2022/08/31 02:19:35;;;;;;;;;;;;;;;16.51;76.52;102084.38;5113525;28;20267;-34
2022/08/31 02:22:00;;;;;;;;;;;;;;;16.46;76.59;102087.81;5113251;28;19911;-34
2022/08/31 02:24:25;;;;;;;;;;;;;;;16.43;76.48;102087.47;5113483;28;19957;-34
2022/08/31 02:26:50;;;;;;;;;;;;;;;16.40;76.81;102093.41;5113849;28;19912;-34
2022/08/31 02:29:16;;;;;;;;;;;;;;;16.39;76.96;102099.91;5113520;28;19911;-34
2022/08/31 02:31:42;;;;;;;;;;;;;;;16.34;76.55;102095.19;5114329;28;19916;-34
2022/08/31 02:34:07;;;;;;;;;;;;;;;16.27;77.73;102096.38;5113467;28;20003;-34
2022/08/31 02:36:32;;;;;;;;;;;;;;;16.26;77.52;102100.19;5114029;28;19912;-34
2022/08/31 02:38:58;;;;;;;;;;;;;;;16.25;76.90;102106.69;5113409;28;19916;-34
2022/08/31 02:41:23;;;;;;;;;;;;;;;16.22;76.57;102099.84;5113858;28;19973;-34
2022/08/31 02:43:48;;;;;;;;;;;;;;;16.25;76.49;102103.97;5113380;28;19966;-33
2022/08/31 02:46:13;;;;;;;;;;;;;;;16.27;76.42;102105.41;5113879;28;19912;-34
2022/08/31 02:48:39;;;;;;;;;;;;;;;16.30;75.93;102107.66;5113268;28;19972;-33
2022/08/31 02:51:07;;;;;;;;;;;;;;;16.21;77.92;102107.19;5112957;28;20355;-34
2022/08/31 02:53:33;;;;;;;;;;;;;;;16.21;77.06;102096.28;5111951;28;19912;-34
2022/08/31 02:55:59;;;;;;;;;;;;;;;16.21;76.39;102100.91;5114258;28;19919;-34
2022/08/31 02:58:24;;;;;;;;;;;;;;;16.18;77.19;102095.91;5117517;28;20014;-34
2022/08/31 03:00:49;;;;;;;;;;;;;;;16.17;76.81;102097.00;5117926;28;19911;-34
2022/08/31 03:03:14;;;;;;;;;;;;;;;16.12;76.42;102100.44;5116911;28;20373;-34
2022/08/31 03:05:40;;;;;;;;;;;;;;;16.09;76.85;102100.06;5116950;28;20351;-34
2022/08/31 03:08:05;;;;;;;;;;;;;;;16.04;76.45;102094.50;5116923;28;19916;-34
2022/08/31 03:10:31;;;;;;;;;;;;;;;16.04;76.14;102094.50;5116474;27;20348;-34
2022/08/31 03:12:56;;;;;;;;;;;;;;;16.03;77.12;102093.66;5116838;28;19911;-34
2022/08/31 03:15:21;;;;;;;;;;;;;;;16.00;77.02;102101.47;5116409;28;19915;-33
2022/08/31 03:17:47;;;;;;;;;;;;;;;15.98;76.61;102090.81;5117050;27;19911;-33
2022/08/31 03:20:13;;;;;;;;;;;;;;;15.96;75.93;102088.34;5116741;28;19912;-34
2022/08/31 03:22:38;;;;;;;;;;;;;;;15.99;75.72;102092.47;5116619;28;19935;-33
2022/08/31 03:25:04;;;;;;;;;;;;;;;16.00;76.10;102096.84;5117296;28;19911;-34
2022/08/31 03:27:29;;;;;;;;;;;;;;;15.94;76.71;102095.06;5116859;28;19919;-34
2022/08/31 03:29:55;;;;;;;;;;;;;;;15.90;76.47;102091.97;5116394;28;19911;-35
2022/08/31 03:32:20;;;;;;;;;;;;;;;15.89;76.34;102094.97;5117155;28;19919;-34
2022/08/31 03:34:46;;;;;;;;;;;;;;;15.86;76.45;102098.16;5116845;28;19912;-35
2022/08/31 03:37:11;;;;;;;;;;;;;;;15.81;76.12;102103.47;5116759;28;19938;-35
2022/08/31 03:39:37;;;;;;;;;;;;;;;15.79;75.75;102091.97;5116526;28;20271;-35
2022/08/31 03:42:05;;;;;;;;;;;;;;;15.74;76.18;102105.50;5115978;28;19965;-35
2022/08/31 03:44:30;;;;;;;;;;;;;;;15.75;76.01;102099.78;5115804;28;20359;-35
2022/08/31 03:46:56;;;;;;;;;;;;;;;15.66;76.53;102104.78;5116207;28;19911;-35
2022/08/31 03:49:21;;;;;;;;;;;;;;;15.58;76.23;102107.81;5116247;28;20283;-35
2022/08/31 03:51:47;;;;;;;;;;;;;;;15.56;76.53;102099.00;5116081;28;20389;-35
2022/08/31 03:54:12;;;;;;;;;;;;;;;15.56;76.10;102099.00;5116038;28;19911;-35
2022/08/31 03:56:38;;;;;;;;;;;;;;;15.52;75.86;102108.75;5116704;28;19915;-35
2022/08/31 03:59:03;;;;;;;;;;;;;;;15.54;75.66;102106.59;5115978;28;19915;-35
2022/08/31 04:01:29;;;;;;;;;;;;;;;15.56;75.96;102109.91;5116233;28;19912;-35
2022/08/31 04:03:54;;;;;;;;;;;;;;;15.53;75.65;102107.69;5116041;28;20256;-35
2022/08/31 04:06:20;;;;;;;;;;;;;;;15.50;75.82;102104.59;5116199;28;19972;-35
2022/08/31 04:08:46;;;;;;;;;;;;;;;15.50;75.23;102110.03;5115266;28;19983;-35
2022/08/31 04:11:12;;;;;;;;;;;;;;;15.49;75.31;102114.66;5116299;28;19922;-35
2022/08/31 04:13:38;;;;;;;;;;;;;;;15.46;75.35;102110.50;5115933;28;19911;-34
2022/08/31 04:16:06;;;;;;;;;;;;;;;15.45;75.53;102108.84;5115760;28;19923;-34
2022/08/31 04:18:31;;;;;;;;;;;;;;;15.44;75.13;102109.91;5115340;28;19927;-35
2022/08/31 04:20:56;;;;;;;;;;;;;;;15.42;75.35;102111.19;5115432;28;19912;-34
2022/08/31 04:23:24;;;;;;;;;;;;;;;15.35;75.28;102118.66;5115552;28;19916;-35
2022/08/31 04:25:49;;;;;;;;;;;;;;;15.30;75.01;102113.06;5115544;28;19911;-35
2022/08/31 04:28:15;;;;;;;;;;;;;;;15.27;74.92;102116.22;5115017;27;19933;-35
2022/08/31 04:30:41;;;;;;;;;;;;;;;15.24;75.55;102120.28;5114282;28;20036;-35
2022/08/31 04:33:06;;;;;;;;;;;;;;;15.24;75.26;102127.63;5115469;28;19912;-35
2022/08/31 04:35:31;;;;;;;;;;;;;;;15.26;75.02;102125.47;5115100;28;20276;-34
2022/08/31 04:37:57;;;;;;;;;;;;;;;15.28;74.44;102112.47;5115159;28;20267;-35
2022/08/31 04:40:22;;;;;;;;;;;;;;;15.30;74.77;102111.16;5115081;28;19934;-34
2022/08/31 04:42:48;;;;;;;;;;;;;;;15.29;74.72;102128.59;5114874;28;20315;-35
2022/08/31 04:45:14;;;;;;;;;;;;;;;15.23;74.47;102121.34;5115006;28;19918;-34
2022/08/31 04:47:40;;;;;;;;;;;;;;;15.22;74.46;102125.09;5115509;28;20034;-34
2022/08/31 04:50:06;;;;;;;;;;;;;;;15.20;74.21;102121.78;5115268;28;20271;-34
2022/08/31 04:52:32;;;;;;;;;;;;;;;15.16;74.25;102126.84;5115662;28;20286;-34
2022/08/31 04:54:57;;;;;;;;;;;;;;;15.11;73.75;102126.72;5114974;28;19911;-34
2022/08/31 04:57:22;;;;;;;;;;;;;;;15.11;73.92;102128.63;5115565;28;19922;-35
2022/08/31 04:59:47;;;;;;;;;;;;;;;15.02;73.84;102110.91;5114979;28;20263;-35
2022/08/31 05:02:13;;;;;;;;;;;;;;;15.08;73.61;102127.19;5115033;28;19920;-34
2022/08/31 05:04:39;;;;;;;;;;;;;;;15.06;73.51;102114.84;5115356;28;20335;-34
2022/08/31 05:07:04;;;;;;;;;;;;;;;15.01;72.97;102118.25;5114371;28;19972;-34
2022/08/31 05:09:29;;;;;;;;;;;;;;;15.00;73.32;102122.06;5114446;28;19965;-34
2022/08/31 05:11:55;;;;;;;;;;;;;;;15.01;73.24;102118.25;5114786;28;19916;-34
2022/08/31 05:14:21;;;;;;;;;;;;;;;15.00;72.66;102121.22;5114195;28;20026;-34
2022/08/31 05:16:46;;;;;;;;;;;;;;;14.98;72.70;102124.16;5114714;28;19912;-35
2022/08/31 05:19:11;;;;;;;;;;;;;;;14.98;72.54;102135.06;5112855;28;20377;-35
2022/08/31 05:21:37;;;;;;;;;;;;;;;14.98;72.74;102132.34;5113650;28;20323;-34
2022/08/31 05:24:08;;;;;;;;;;;;;;;14.96;72.44;102137.19;5114543;28;19912;-35
2022/08/31 05:26:34;;;;;;;;;;;;;;;14.95;72.85;102135.53;5114576;28;20335;-34
2022/08/31 05:29:01;;;;;;;;;;;;;;;14.97;72.37;102140.75;5114292;28;19954;-35
2022/08/31 05:31:27;;;;;;;;;;;;;;;14.97;72.48;102141.56;5114727;28;19958;-34
2022/08/31 05:33:53;;;;;;;;;;;;;;;14.99;72.30;102141.34;5114087;28;19981;-34
2022/08/31 05:36:18;;;;;;;;;;;;;;;15.01;72.31;102148.22;5114071;28;19919;-34
2022/08/31 05:38:43;;;;;;;;;;;;;;;15.03;71.78;102148.84;5113826;28;19915;-34
2022/08/31 05:41:09;;;;;;;;;;;;;;;15.07;72.19;102150.03;5113999;28;19918;-34
2022/08/31 05:43:35;;;;;;;;;;;;;;;15.10;71.62;102148.75;5114236;28;19912;-34
2022/08/31 05:46:03;;;;;;;;;;;;;;;15.06;71.88;102148.38;5114003;28;19911;-34
2022/08/31 05:48:32;;;;;;;;;;;;;;;15.11;71.65;102144.97;5114200;28;19920;-34
2022/08/31 05:50:59;;;;;;;;;;;;;;;15.13;71.59;102151.84;5114362;28;19931;-35
2022/08/31 05:53:25;;;;;;;;;;;;;;;15.15;71.19;102152.44;5114352;28;19942;-34
2022/08/31 05:55:56;;;;;;;;;;;;;;;15.14;71.08;102149.97;5114060;28;19916;-35
2022/08/31 05:58:21;;;;;;;;;;;;;;;15.18;71.00;102146.56;5113389;28;20395;-35
2022/08/31 06:00:47;;;;;;;;;;;;;;;15.20;70.36;102149.88;5114508;28;20031;-35
2022/08/31 06:03:12;;;;;;;;;;;;;;;15.19;69.71;102153.66;5114260;28;19920;-35
2022/08/31 06:05:37;;;;;;;;;;;;;;;15.18;70.43;102152.00;5113751;28;19972;-35
2022/08/31 06:08:02;;;;;;;;;;;;;;;15.24;70.71;102157.59;5114495;28;19936;-35
2022/08/31 06:10:28;;;;;;;;;;;;;;;15.27;69.88;102154.38;5113975;28;19911;-35
2022/08/31 06:12:53;;;;;;;;;;;;;;;15.28;69.86;102156.06;5114019;28;20395;-35
2022/08/31 06:15:19;;;;;;;;;;;;;;;15.35;69.92;102160.34;5114263;28;20007;-35
2022/08/31 06:17:45;;;;;;;;;;;;;;;15.40;69.79;102155.03;5113956;28;20335;-35
2022/08/31 06:20:10;;;;;;;;;;;;;;;15.45;69.45;102165.25;5113616;28;20006;-35
2022/08/31 06:22:36;;;;;;;;;;;;;;;15.54;69.36;102168.47;5113848;28;19946;-35
2022/08/31 06:25:03;;;;;;;;;;;;;;;15.60;68.91;102154.75;5113636;28;19915;-35
2022/08/31 06:27:28;;;;;;;;;;;;;;;15.58;68.92;102159.63;5113371;28;20434;-35
2022/08/31 06:29:54;;;;;;;;;;;;;;;15.58;68.18;102165.06;5113930;28;19984;-35
2022/08/31 06:32:19;;;;;;;;;;;;;;;15.59;67.88;102166.72;5117389;28;19911;-33
2022/08/31 06:34:45;;;;;;;;;;;;;;;15.62;67.71;102162.72;5117236;28;19972;-33
2022/08/31 06:37:11;;;;;;;;;;;;;;;15.66;67.15;102170.22;5117680;28;20344;-36
2022/08/31 06:39:36;;;;;;;;;;;;;;;15.64;67.59;102164.16;5117727;28;20006;-34
2022/08/31 06:42:02;;;;;;;;;;;;;;;15.65;67.28;102165.00;5118202;28;19955;-34
2022/08/31 06:44:28;;;;;;;;;;;;;;;15.64;67.50;102183.25;5117659;28;19918;-34
2022/08/31 06:46:53;;;;;;;;;;;;;;;15.67;67.75;102180.06;5117419;28;19957;-35
2022/08/31 06:49:19;;;;;;;;;;;;;;;15.78;67.65;102180.31;5117880;28;19916;-34
2022/08/31 06:51:44;;;;;;;;;;;;;;;15.88;67.25;102183.31;5117732;27;19911;-34
2022/08/31 06:54:15;;;;;;;;;;;;;;;15.97;66.74;102179.19;5117770;28;19911;-34
2022/08/31 06:56:41;;;;;;;;;;;;;;;16.02;66.39;102190.22;5117564;28;19919;-35
2022/08/31 06:59:06;;;;;;;;;;;;;;;15.98;65.77;102186.31;5117214;28;19961;-34
2022/08/31 07:01:34;;;;;;;;;;;;;;;16.04;66.32;102192.72;5117003;28;19964;-34
2022/08/31 07:04:00;;;;;;;;;;;;;;;16.11;66.52;102198.91;5117480;28;20375;-34
2022/08/31 07:06:27;;;;;;;;;;;;;;;16.18;66.84;102194.97;5117337;28;20296;-34
2022/08/31 07:08:55;;;;;;;;;;;;;;;16.15;65.87;102202.81;5116928;28;19912;-34
2022/08/31 07:11:40;;;;;;;;;;;;;;;16.04;65.63;102199.00;5116951;28;19919;-34
2022/08/31 07:14:06;;;;;;;;;;;;;;;16.00;65.42;102196.97;5117016;28;20003;-35
2022/08/31 07:16:32;;;;;;;;;;;;;;;15.93;66.02;102192.47;5117587;28;19916;-35
2022/08/31 07:18:58;;;;;;;;;;;;;;;15.94;66.71;102198.75;5117050;28;19965;-35
2022/08/31 07:21:28;;;;;;;;;;;;;;;15.96;65.91;102202.91;5117171;28;19911;-34
2022/08/31 07:23:56;;;;;;;;;;;;;;;16.03;66.28;102191.88;5116909;28;19965;-34
2022/08/31 07:26:24;;;;;;;;;;;;;;;16.10;66.33;102198.03;5116903;28;19911;-34
2022/08/31 07:28:51;;;;;;;;;;;;;;;16.14;66.55;102196.50;5117014;28;20277;-34
2022/08/31 07:31:18;;;;;;;;;;;;;;;16.18;66.44;102197.72;5116515;28;19918;-34
2022/08/31 07:33:44;;;;;;;;;;;;;;;16.26;66.31;102190.25;5116389;28;19968;-34
2022/08/31 07:36:11;;;;;;;;;;;;;;;16.30;66.46;102200.47;5117110;28;19912;-34
2022/08/31 07:44:05;;;;;;;;;;;;;;;16.50;65.69;102200.13;5116401;28;19958;-34
2022/08/31 07:46:31;;;;;;;;;;;;;;;16.61;66.21;102193.81;5116691;28;19915;-34
2022/08/31 07:48:57;;;;;;;;;;;;;;;16.69;65.98;102192.63;5116939;28;20327;-34
2022/08/31 07:51:23;;;;;;;;;;;;;;;16.72;66.06;102206.66;5116101;28;20362;-34
2022/08/31 07:53:48;;;;;;;;;;;;;;;16.73;65.74;102199.28;5116126;28;19939;-34
2022/08/31 07:56:17;;;;;;;;;;;;;;;16.82;66.09;102202.50;5117071;28;19911;-34
2022/08/31 07:58:42;;;;;;;;;;;;;;;16.82;65.13;102199.75;5116212;28;19912;-34
2022/08/31 08:01:08;;;;;;;;;;;;;;;16.93;65.55;102202.50;5116053;28;19912;-34
2022/08/31 08:03:33;;;;;;;;;;;;;;;17.01;65.17;102209.47;5115711;28;20355;-34
2022/08/31 08:05:58;;;;;;;;;;;;;;;17.08;65.45;102209.31;5115763;28;19912;-34
2022/08/31 08:08:24;;;;;;;;;;;;;;;17.13;65.54;102207.56;5115725;28;19915;-34
2022/08/31 08:10:49;;;;;;;;;;;;;;;17.20;65.30;102204.66;5115660;28;20352;-34
2022/08/31 08:13:18;;;;;;;;;;;;;;;17.31;65.04;102206.53;5115654;28;19930;-34
2022/08/31 08:15:43;;;;;;;;;;;;;;;17.36;65.11;102205.81;5115536;28;20341;-34
2022/08/31 08:18:11;;;;;;;;;;;;;;;17.43;64.97;102209.22;5115596;27;20001;-34
2022/08/31 08:20:36;;;;;;;;;;;;;;;17.52;65.18;102199.56;5115481;28;19919;-34
2022/08/31 08:23:01;;;;;;;;;;;;;;;17.64;64.91;102203.06;5116070;28;19916;-34
2022/08/31 08:25:26;;;;;;;;;;;;;;;17.79;64.73;102204.44;5115282;28;19911;-34
2022/08/31 08:27:53;;;;;;;;;;;;;;;17.88;64.88;102205.72;5115569;28;20359;-34
2022/08/31 08:30:18;;;;;;;;;;;;;;;17.91;64.49;102208.78;5115315;28;20347;-34
2022/08/31 08:32:43;;;;;;;;;;;;;;;17.96;64.29;102214.34;5115285;28;19918;-34
2022/08/31 08:35:09;;;;;;;;;;;;;;;18.07;63.98;102217.25;5114842;28;19912;-34
2022/08/31 08:37:37;;;;;;;;;;;;;;;18.15;63.77;102209.44;5115137;28;19912;-34
2022/08/31 08:40:04;;;;;;;;;;;;;;;18.26;63.98;102210.47;5115154;28;20255;-34
2022/08/31 08:42:29;;;;;;;;;;;;;;;18.39;63.68;102214.75;5115538;28;19943;-33
2022/08/31 08:44:55;;;;;;;;;;;;;;;18.51;63.10;102218.25;5115014;28;20019;-34
2022/08/31 08:47:23;;;;;;;;;;;;;;;18.51;62.42;102227.28;5115092;28;19912;-34
2022/08/31 08:49:51;;;;;;;;;;;;;;;18.52;62.80;102218.00;5114658;28;19911;-34
2022/08/31 08:52:19;;;;;;;;;;;;;;;18.52;62.65;102225.38;5114736;28;20360;-34
2022/08/31 08:54:46;;;;;;;;;;;;;;;18.59;62.35;102216.97;5114499;28;19912;-33
2022/08/31 08:57:13;;;;;;;;;;;;;;;18.65;61.92;102207.78;5115368;28;19927;-34
2022/08/31 08:59:40;;;;;;;;;;;;;;;18.82;62.20;102214.06;5115570;28;20295;-34
2022/08/31 09:02:07;;;;;;;;;;;;;;;18.95;62.36;102208.22;5114606;28;19912;-34
2022/08/31 09:04:59;;;;;;;;;;;;;;;19.11;62.18;102202.94;5114716;28;20387;-34
2022/08/31 09:07:29;;;;;;;;;;;;;;;19.13;61.58;102206.22;5114605;28;20006;-35
2022/08/31 09:10:13;;;;;;;;;;;;;;;19.09;61.01;102208.69;5114521;27;19911;-34
2022/08/31 09:12:45;;;;;;;;;;;;;;;19.14;60.73;102210.66;5115079;28;20332;-35
2022/08/31 09:15:16;;;;;;;;;;;;;;;19.26;61.21;102208.59;5114517;28;19912;-35
2022/08/31 09:17:54;;;;;;;;;;;;;;;19.39;61.54;102207.38;5114584;28;19915;-35
2022/08/31 09:20:19;;;;;;;;;;;;;;;19.49;60.39;102205.56;5112975;28;19912;-35
2022/08/31 09:22:50;;;;;;;;;;;;;;;19.51;60.67;102217.09;5114828;28;20008;-35
2022/08/31 09:25:18;;;;;;;;;;;;;;;19.41;60.33;102211.50;5114562;28;19919;-34
2022/08/31 09:27:46;;;;;;;;;;;;;;;19.51;60.13;102205.31;5114804;28;19911;-34
2022/08/31 09:30:16;;;;;;;;;;;;;;;19.73;60.75;102197.91;5114488;28;20353;-34
2022/08/31 09:32:51;;;;;;;;;;;;;;;19.93;60.26;102201.91;5114183;28;19922;-34
2022/08/31 09:35:25;;;;;;;;;;;;;;;20.06;59.77;102194.09;5114453;28;19916;-34
2022/08/31 09:38:01;;;;;;;;;;;;;;;20.21;59.33;102195.28;5114712;28;20051;-34
2022/08/31 09:40:35;;;;;;;;;;;;;;;20.34;59.55;102186.59;5114452;28;20035;-35
2022/08/31 09:43:07;;;;;;;;;;;;;;;20.48;58.24;102204.28;5113738;28;20373;-34
2022/08/31 09:45:35;;;;;;;;;;;;;;;20.62;58.16;102199.16;5114211;28;20271;-34
2022/08/31 09:48:02;;;;;;;;;;;;;;;20.82;58.14;102192.94;5113946;28;19959;-34
2022/08/31 09:50:31;;;;;;;;;;;;;;;21.04;57.82;102195.53;5113610;28;20409;-34
2022/08/31 09:56:13;;;;;;;;;;;;;;;21.02;56.61;102209.53;5114543;28;19919;-35
2022/08/31 09:58:51;;;;;;;;;;;;;;;20.85;56.60;102205.34;5113915;28;19923;-35
2022/08/31 10:01:23;;;;;;;;;;;;;;;20.81;57.89;102200.38;5114158;28;19916;-35
2022/08/31 10:03:48;;;;;;;;;;;;;;;20.86;57.86;102202.31;5115456;28;20006;-35
2022/08/31 10:06:36;;;;;;;;;;;;;;;20.87;58.15;102200.41;5120947;28;20346;-35
2022/08/31 10:09:06;;;;;;;;;;;;;;;20.91;58.44;102188.59;5120629;27;20378;-35
2022/08/31 10:11:32;;;;;;;;;;;;;;;21.04;57.63;102190.88;5120565;27;19912;-35
2022/08/31 10:14:14;;;;;;;;;;;;;;;21.02;57.43;102187.53;5120763;27;19957;-35
2022/08/31 10:16:46;;;;;;;;;;;;;;;20.98;57.99;102191.09;5120953;27;19990;-35
2022/08/31 10:19:19;;;;;;;;;;;;;;;20.90;57.98;102177.88;5121317;27;20374;-35
2022/08/31 10:21:50;;;;;;;;;;;;;;;20.94;58.44;102181.75;5120098;27;19999;-35
2022/08/31 10:24:27;;;;;;;;;;;;;;;21.06;59.18;102185.91;5120519;27;19911;-36
2022/08/31 10:27:16;;;;;;;;;;;;;;;21.31;57.97;102176.94;5120487;27;19915;-35
2022/08/31 10:29:48;;;;;;;;;;;;;;;21.34;57.66;102181.91;5037509;28;19913;-37
2022/08/31 10:32:45;;;;;;;;;;;;;;;21.19;57.43;102187.34;5037615;28;19913;-35
2022/08/31 10:35:18;;;;;;;;;;;;;;;21.20;57.69;102180.75;4979031;28;20303;-35
2022/08/31 10:37:53;;;;;;;;;;;;;;;21.42;57.83;102177.78;4978563;28;20009;-35
2022/08/31 10:40:23;;;;;;;;;;;;;;;21.73;57.58;102175.13;4978395;28;19914;-35
2022/08/31 10:43:12;;;;;;;;;;;;;;;21.64;56.77;102179.50;4978466;28;19914;-35
2022/08/31 10:45:42;;;;;;;;;;;;;;;21.62;56.93;102173.44;4971395;28;19922;-35
2022/08/31 10:48:09;;;;;;;;;;;;;;;21.77;56.68;102170.72;4978684;28;20001;-35
2022/08/31 10:50:43;;;;;;;;;;;;;;;21.66;56.32;102164.34;4978908;28;19914;-34
2022/08/31 10:53:12;;;;;;;;;;;;;;;21.93;57.31;102163.28;4978820;28;19918;-35
2022/08/31 10:55:58;;;;;;;;;;;;;;;22.25;55.86;102163.00;4978141;28;19914;-35
2022/08/31 10:58:30;;;;;;;;;;;;;;;22.36;55.07;102165.47;4977998;28;20329;-34
2022/08/31 11:00:59;;;;;;;;;;;;;;;22.43;53.98;102172.63;4978855;28;19941;-35
2022/08/31 11:03:39;;;;;;;;;;;;;;;22.36;54.84;102162.72;4978041;28;20418;-35
2022/08/31 11:06:11;;;;;;;;;;;;;;;22.54;54.51;102168.72;5004173;28;19948;-35
2022/08/31 11:08:36;;;;;;;;;;;;;;;22.75;54.88;102164.81;5077305;28;19912;-34
2022/08/31 11:11:05;;;;;;;;;;;;;;;22.86;54.31;102165.59;5103714;28;19949;-35
2022/08/31 11:13:50;;;;;;;;;;;;;;;22.94;54.42;102165.06;5120371;27;19973;-35
2022/08/31 11:16:31;;;;;;;;;;;;;;;22.99;53.76;102164.22;5117459;27;19922;-35
2022/08/31 11:19:25;;;;;;;;;;;;;;;23.09;54.28;102155.88;5116759;28;19915;-35
2022/08/31 11:21:51;;;;;;;;;;;;;;;23.24;52.43;102172.34;5033809;28;19916;-35
2022/08/31 11:24:16;;;;;;;;;;;;;;;23.10;53.10;102161.09;5034428;28;19913;-35
2022/08/31 11:26:42;;;;;;;;;;;;;;;23.01;53.13;102159.22;5033860;28;20269;-35
2022/08/31 11:29:27;;;;;;;;;;;;;;;23.15;53.21;102148.41;5033579;28;19944;-35
2022/08/31 11:31:53;;;;;;;;;;;;;;;23.17;52.94;102155.28;5033754;28;19917;-35
2022/08/31 11:34:26;;;;;;;;;;;;;;;23.33;53.12;102158.78;5033516;28;20357;-35
2022/08/31 11:36:53;;;;;;;;;;;;;;;23.55;52.49;102137.09;5034006;28;19917;-35
2022/08/31 11:39:21;;;;;;;;;;;;;;;23.75;52.32;102138.06;5033514;28;20000;-35
2022/08/31 11:41:50;;;;;;;;;;;;;;;23.90;51.18;102136.00;5033947;28;19913;-35
2022/08/31 11:44:28;;;;;;;;;;;;;;;23.88;49.86;102138.25;5033374;28;19939;-35
2022/08/31 11:47:05;;;;;;;;;;;;;;;23.96;51.15;102138.72;5033569;28;19917;-35
2022/08/31 11:49:45;;;;;;;;;;;;;;;23.93;50.49;102144.84;5033237;28;19913;-35
2022/08/31 11:52:28;;;;;;;;;;;;;;;23.94;49.91;102116.09;5033403;28;20377;-35
2022/08/31 11:54:54;;;;;;;;;;;;;;;23.77;50.75;102124.81;5033124;28;19917;-34
2022/08/31 11:57:24;;;;;;;;;;;;;;;23.94;50.38;102127.16;5033544;28;19920;-35
2022/08/31 11:59:51;;;;;;;;;;;;;;;24.09;50.92;102129.75;5117084;28;19916;-35
2022/08/31 12:02:20;;;;;;;;;;;;;;;24.27;49.32;102128.22;5116426;28;19911;-35
2022/08/31 12:04:46;;;;;;;;;;;;;;;24.19;49.85;102128.84;5115904;28;19919;-35
2022/08/31 12:07:29;;;;;;;;;;;;;;;23.78;49.89;102118.19;5116111;28;19923;-35
2022/08/31 12:10:00;;;;;;;;;;;;;;;23.66;50.14;102123.25;5116087;28;20010;-35
2022/08/31 12:12:44;;;;;;;;;;;;;;;23.57;50.74;102115.56;5115761;28;20411;-35
2022/08/31 12:15:24;;;;;;;;;;;;;;;23.82;49.87;102116.50;5116547;28;19934;-35
2022/08/31 12:17:55;;;;;;;;;;;;;;;23.94;50.36;102110.56;5115840;28;19961;-35
2022/08/31 12:20:20;;;;;;;;;;;;;;;24.06;49.92;102111.84;5115537;28;19954;-35
2022/08/31 12:25:53;;;;;;;;;;;;;;;24.42;48.75;102102.38;5116032;28;19923;-35
2022/08/31 12:28:36;;;;;;;;;;;;;;;24.44;48.50;102100.94;5114056;28;19912;-35
2022/08/31 12:31:03;;;;;;;;;;;;;;;24.46;48.80;102106.19;5115912;27;20011;-35
2022/08/31 12:33:29;;;;;;;;;;;;;;;24.57;48.97;102094.72;5115649;28;20366;-35
2022/08/31 12:36:10;;;;;;;;;;;;;;;24.61;48.86;102094.94;5114993;28;19919;-35
2022/08/31 12:38:35;;;;;;;;;;;;;;;24.69;48.87;102083.22;5115286;28;19919;-35
2022/08/31 12:41:00;;;;;;;;;;;;;;;24.76;48.30;102088.41;5115712;28;19912;-35
2022/08/31 12:43:45;;;;;;;;;;;;;;;24.95;48.21;102094.78;5115366;28;19911;-35
2022/08/31 12:46:13;;;;;;;;;;;;;;;24.95;46.98;102088.44;5115070;28;19915;-35
2022/08/31 12:48:57;;;;;;;;;;;;;;;24.81;46.70;102080.84;5115000;28;19951;-35
2022/08/31 12:51:22;;;;;;;;;;;;;;;24.97;47.37;102086.16;5114969;28;19912;-35
2022/08/31 12:53:50;;;;;;;;;;;;;;;24.82;47.26;102085.25;5115469;28;19919;-35
2022/08/31 12:56:22;;;;;;;;;;;;;;;24.99;47.47;102082.00;5114558;28;19972;-35